Time;durP1;ratioP1;P1;durP2;ratioP2;P2;SDS_P1;SDS_P2;PMS_P1;PMS_P2;Temp;Humidity;BMP_temperature;BMP_pressure;BME280_temperature;BME280_humidity;BME280_pressure;Samples;Min_cycle;Max_cycle;Signal;HPM_P1;HPM_P2
2021/10/01 00:01:33;;;;;;;;;3.25;1.00;;;;;15.84;49.57;101830.47;4924867;28;45510;-56
2021/10/01 00:03:58;;;;;;;;;1.00;1.00;;;;;15.83;49.23;101824.31;4924745;28;45529;-58
2021/10/01 00:06:24;;;;;;;;;3.00;2.25;;;;;15.82;49.35;101821.75;4924830;28;46166;-57
2021/10/01 00:08:50;;;;;;;;;1.50;1.50;;;;;15.81;49.16;101823.56;4924618;28;45234;-56
2021/10/01 00:11:15;;;;;;;;;1.00;1.00;;;;;15.80;49.65;101816.53;4924979;28;45317;-57
2021/10/01 00:13:41;;;;;;;;;2.25;1.50;;;;;15.77;49.70;101822.03;4924865;28;45505;-57
2021/10/01 00:16:06;;;;;;;;;13.00;12.00;;;;;15.75;49.74;101812.47;4924593;28;45349;-56
2021/10/01 00:18:32;;;;;;;;;2.00;2.00;;;;;15.73;49.76;101812.56;4923696;28;45451;-56
2021/10/01 00:20:58;;;;;;;;;5.00;2.75;;;;;15.74;49.70;101808.09;4924654;28;45395;-55
2021/10/01 00:23:24;;;;;;;;;3.00;2.00;;;;;15.71;49.76;101803.81;4924924;28;45403;-58
2021/10/01 00:25:50;;;;;;;;;3.50;1.00;;;;;15.71;49.56;101802.97;4924671;28;45348;-57
2021/10/01 00:28:15;;;;;;;;;1.50;1.00;;;;;15.70;49.90;101796.81;4924186;28;45298;-56
2021/10/01 00:30:41;;;;;;;;;2.50;1.00;;;;;15.69;49.66;101796.91;4924703;28;45318;-56
2021/10/01 00:33:07;;;;;;;;;5.50;1.25;;;;;15.68;49.71;101797.88;4924294;28;45256;-56
2021/10/01 00:35:32;;;;;;;;;3.00;1.00;;;;;15.65;49.84;101798.91;4924497;28;46170;-56
2021/10/01 00:37:59;;;;;;;;;1.75;1.00;;;;;15.60;50.17;101796.50;4924216;28;45387;-57
2021/10/01 00:40:25;;;;;;;;;1.50;1.00;;;;;15.60;50.27;101804.47;4924626;28;45501;-57
2021/10/01 00:42:51;;;;;;;;;1.00;1.00;;;;;15.60;50.17;101800.97;4924388;28;45500;-56
2021/10/01 00:45:16;;;;;;;;;1.00;0.75;;;;;15.57;50.09;101796.72;4924136;28;46045;-58
2021/10/01 00:47:42;;;;;;;;;1.00;1.00;;;;;15.57;49.93;101804.69;4924006;28;45368;-57
2021/10/01 00:50:08;;;;;;;;;1.00;1.00;;;;;15.58;50.47;101800.22;4924423;28;45352;-57
2021/10/01 00:52:33;;;;;;;;;1.00;1.00;;;;;15.57;50.09;101796.72;4924211;28;45304;-55
2021/10/01 00:55:01;;;;;;;;;1.25;1.25;;;;;15.55;49.91;101803.06;4924083;28;46391;-54
2021/10/01 00:57:27;;;;;;;;;1.25;0.00;;;;;15.56;50.03;101797.66;4924148;28;45375;-57
2021/10/01 00:59:52;;;;;;;;;1.75;1.00;;;;;15.57;50.32;101791.41;4924061;28;45491;-57
2021/10/01 01:02:18;;;;;;;;;1.50;1.50;;;;;15.58;50.40;101781.63;4923586;28;45324;-56
2021/10/01 01:04:46;;;;;;;;;1.00;1.00;;;;;15.57;50.38;101782.59;4924017;28;45320;-55
2021/10/01 01:07:27;;;;;;;;;2.00;1.50;;;;;15.57;50.26;101772.81;4906155;28;45409;-56
2021/10/01 01:10:04;;;;;;;;;1.00;1.00;;;;;15.56;50.27;101773.78;4923137;28;45434;-57
2021/10/01 01:12:46;;;;;;;;;2.50;1.00;;;;;15.55;50.48;101768.53;4917126;28;45185;-57
2021/10/01 01:15:21;;;;;;;;;1.00;1.00;;;;;15.52;51.09;101768.75;4922977;28;45365;-57
2021/10/01 01:17:57;;;;;;;;;3.25;1.00;;;;;15.48;50.55;101770.75;4923706;28;45331;-57
2021/10/01 01:20:35;;;;;;;;;0.00;0.00;;;;;15.47;50.76;101768.16;4923839;28;45281;-57
2021/10/01 01:23:22;;;;;;;;;1.25;1.00;;;;;15.45;50.71;101770.91;4923781;28;45459;-57
2021/10/01 01:26:15;;;;;;;;;3.25;2.00;;;;;15.44;50.72;101760.41;4923616;28;45401;-57
2021/10/01 01:29:07;;;;;;;;;2.00;0.75;;;;;15.41;50.89;101753.50;4923524;28;45448;-56
2021/10/01 01:31:51;;;;;;;;;1.00;1.00;;;;;15.38;50.89;101756.31;4923157;28;45311;-57
2021/10/01 01:34:36;;;;;;;;;1.00;1.00;;;;;15.34;51.12;101752.19;4923819;28;45348;-57
2021/10/01 01:37:06;;;;;;;;;0.50;0.50;;;;;15.31;51.19;101742.59;4906435;28;45288;-58
2021/10/01 01:39:35;;;;;;;;;2.75;1.75;;;;;15.31;51.34;101744.38;4923426;28;45406;-57
2021/10/01 01:42:02;;;;;;;;;2.00;1.00;;;;;15.31;51.28;101747.88;4923738;28;45418;-58
2021/10/01 01:44:29;;;;;;;;;2.25;1.00;;;;;15.29;51.42;101740.97;4923468;28;45173;-57
2021/10/01 01:46:58;;;;;;;;;0.00;0.00;;;;;15.27;51.47;101740.22;4923024;28;46107;-57
2021/10/01 01:49:25;;;;;;;;;1.50;1.00;;;;;15.27;51.33;101735.78;4923374;28;45348;-58
2021/10/01 01:51:51;;;;;;;;;1.50;1.00;;;;;15.25;51.90;101736.84;4923525;28;45260;-57
2021/10/01 01:54:19;;;;;;;;;2.00;1.00;;;;;15.22;52.04;101727.25;4923389;28;45234;-57
2021/10/01 01:56:46;;;;;;;;;2.75;1.00;;;;;15.22;51.87;101721.09;4923436;28;45303;-57
2021/10/01 01:59:13;;;;;;;;;1.00;0.00;;;;;15.20;51.72;101717.69;4923081;28;45540;-54
2021/10/01 02:01:43;;;;;;;;;1.00;1.00;;;;;15.19;52.07;101719.47;4923253;28;45323;-56
2021/10/01 02:04:10;;;;;;;;;1.75;1.00;;;;;15.16;52.15;101713.50;4906197;28;45213;-55
2021/10/01 02:06:36;;;;;;;;;1.50;1.50;;;;;15.13;52.41;101709.25;4922955;28;45485;-57
2021/10/01 02:09:03;;;;;;;;;1.00;1.00;;;;;15.09;52.33;101710.41;4922807;28;45412;-57
2021/10/01 02:11:30;;;;;;;;;2.00;1.00;;;;;15.06;52.55;101702.63;4923108;28;45538;-56
2021/10/01 02:13:57;;;;;;;;;13.00;11.75;;;;;15.05;52.38;101695.59;4923040;28;45515;-56
2021/10/01 02:16:25;;;;;;;;;4.50;4.50;;;;;15.05;52.63;101696.47;4922781;28;46293;-56
2021/10/01 02:18:53;;;;;;;;;2.00;2.00;;;;;15.05;52.80;101690.31;4922846;28;45340;-57
2021/10/01 02:21:21;;;;;;;;;4.25;1.50;;;;;15.01;52.66;101687.00;4923239;28;45333;-57
2021/10/01 02:23:47;;;;;;;;;1.75;1.25;;;;;15.01;52.83;101688.81;4923098;28;45548;-56
2021/10/01 02:26:36;;;;;;;;;3.00;1.00;;;;;15.00;52.90;101681.75;4922828;28;46098;-57
2021/10/01 02:29:25;;;;;;;;;1.00;1.00;;;;;14.96;53.02;101672.31;4922928;28;45317;-56
2021/10/01 02:31:59;;;;;;;;;0.00;0.00;;;;;14.93;53.27;101676.03;4922770;28;45432;-56
2021/10/01 02:34:45;;;;;;;;;2.00;2.00;;;;;14.88;53.07;101664.81;4922951;28;45339;-56
2021/10/01 02:37:12;;;;;;;;;1.00;1.00;;;;;14.88;53.54;101659.53;4922836;28;45455;-56
2021/10/01 02:39:41;;;;;;;;;2.00;0.75;;;;;14.88;53.35;101656.88;4922801;28;45432;-56
2021/10/01 02:42:08;;;;;;;;;1.00;1.00;;;;;14.87;53.51;101651.66;4923541;28;45391;-56
2021/10/01 02:44:35;;;;;;;;;3.25;2.00;;;;;14.82;53.56;101649.28;4925904;28;45337;-56
2021/10/01 02:47:01;;;;;;;;;1.00;0.25;;;;;14.78;53.57;101648.63;4925982;28;45488;-57
2021/10/01 02:49:27;;;;;;;;;1.00;1.00;;;;;14.76;53.54;101647.88;4925944;28;45335;-56
2021/10/01 02:51:59;;;;;;;;;2.00;2.00;;;;;14.77;53.69;101648.72;4926296;28;45302;-56
2021/10/01 02:55:05;;;;;;;;;2.00;1.00;;;;;14.75;54.13;101648.81;4925968;28;45419;-58
2021/10/01 02:57:42;;;;;;;;;1.00;1.00;;;;;14.74;54.03;101646.25;4925418;28;46097;-58
2021/10/01 03:00:08;;;;;;;;;2.25;1.00;;;;;14.72;53.89;101638.41;4925606;28;45323;-57
2021/10/01 03:02:36;;;;;;;;;4.00;1.00;;;;;14.73;54.04;101642.75;4925440;28;45168;-57
2021/10/01 03:05:03;;;;;;;;;1.50;1.00;;;;;14.71;53.83;101635.84;4925905;28;45295;-56
2021/10/01 03:07:33;;;;;;;;;1.00;1.00;;;;;14.68;54.28;101631.56;4925525;28;46136;-56
2021/10/01 03:10:04;;;;;;;;;1.00;1.00;;;;;14.65;54.10;101630.94;4919445;28;45311;-57
2021/10/01 03:12:31;;;;;;;;;1.50;1.00;;;;;14.61;54.74;101624.94;4925589;28;45558;-56
2021/10/01 03:14:57;;;;;;;;;1.00;1.00;;;;;14.62;54.33;101628.47;4925587;28;45486;-58
2021/10/01 03:17:24;;;;;;;;;2.00;1.00;;;;;14.58;54.78;101630.44;4925605;28;45314;-57
2021/10/01 03:19:51;;;;;;;;;1.00;1.00;;;;;14.58;54.67;101619.84;4925289;28;45591;-57
2021/10/01 03:22:18;;;;;;;;;1.25;1.25;;;;;14.59;54.89;101616.25;4925253;28;45316;-57
2021/10/01 03:24:44;;;;;;;;;1.25;1.25;;;;;14.58;55.06;101617.19;4925302;28;45249;-57
2021/10/01 03:27:10;;;;;;;;;0.00;0.00;;;;;14.55;55.40;101614.75;4925632;28;45428;-58
2021/10/01 03:29:37;;;;;;;;;1.50;1.25;;;;;14.56;55.17;101618.25;4925151;28;45435;-58
2021/10/01 03:32:04;;;;;;;;;2.00;1.00;;;;;14.54;55.35;101617.50;4925214;28;45170;-58
2021/10/01 03:34:30;;;;;;;;;4.00;1.00;;;;;14.52;55.41;101617.56;4908239;28;45498;-57
2021/10/01 03:36:56;;;;;;;;;2.00;2.00;;;;;14.53;55.23;101606.00;4925506;28;46006;-58
2021/10/01 03:39:22;;;;;;;;;0.50;0.50;;;;;14.54;55.74;101613.03;4925115;28;45683;-58
2021/10/01 03:41:49;;;;;;;;;3.00;2.00;;;;;14.55;55.56;101605.94;4925282;28;45361;-57
2021/10/01 03:44:15;;;;;;;;;3.00;1.00;;;;;14.55;55.69;101604.13;4925225;28;45442;-58
2021/10/01 03:46:40;;;;;;;;;0.00;0.00;;;;;14.56;56.03;101602.34;4924646;28;45336;-58
2021/10/01 03:49:06;;;;;;;;;4.00;2.25;;;;;14.54;56.12;101597.13;4925237;28;45424;-58
2021/10/01 03:51:31;;;;;;;;;0.25;0.25;;;;;14.54;55.62;101601.59;4925316;28;45406;-56
2021/10/01 03:53:58;;;;;;;;;5.00;2.00;;;;;14.54;55.86;101596.28;4923834;28;45318;-58
2021/10/01 03:56:24;;;;;;;;;1.50;1.00;;;;;14.51;56.28;101592.84;4925096;28;45584;-58
2021/10/01 03:58:50;;;;;;;;;3.25;2.00;;;;;14.52;56.08;101591.06;4921822;28;45608;-58
2021/10/01 04:01:16;;;;;;;;;1.00;1.00;;;;;14.50;55.91;101583.19;4924941;28;45456;-58
2021/10/01 04:03:42;;;;;;;;;2.00;1.00;;;;;14.50;56.47;101580.53;4924754;28;45636;-58
2021/10/01 04:06:08;;;;;;;;;1.50;1.00;;;;;14.49;56.13;101578.00;4924743;28;45442;-58
2021/10/01 04:08:33;;;;;;;;;1.25;1.00;;;;;14.46;56.39;101573.75;4924644;28;45503;-57
2021/10/01 04:10:59;;;;;;;;;1.00;1.00;;;;;14.47;56.56;101572.78;4924866;28;45332;-58
2021/10/01 04:13:25;;;;;;;;;2.75;1.00;;;;;14.48;56.18;101571.84;4924870;28;45261;-56
2021/10/01 04:15:51;;;;;;;;;3.25;1.75;;;;;14.45;56.61;101571.13;4924626;28;46002;-58
2021/10/01 04:18:17;;;;;;;;;0.50;0.50;;;;;14.45;56.49;101565.84;4924538;28;45989;-57
2021/10/01 04:20:45;;;;;;;;;2.75;1.00;;;;;14.43;56.79;101563.28;4924962;28;45313;-58
2021/10/01 04:23:11;;;;;;;;;1.00;1.00;;;;;14.43;56.49;101563.28;4924784;28;45245;-58
2021/10/01 04:25:36;;;;;;;;;1.00;1.00;;;;;14.45;56.58;101576.44;4924431;28;45451;-58
2021/10/01 04:28:06;;;;;;;;;3.50;1.00;;;;;14.45;56.67;101566.72;4924355;28;45532;-57
2021/10/01 04:30:32;;;;;;;;;0.50;0.50;;;;;14.45;57.05;101568.47;4924665;28;45282;-58
2021/10/01 04:33:11;;;;;;;;;1.75;1.50;;;;;14.45;56.99;101574.66;4924318;28;45249;-58
2021/10/01 04:35:37;;;;;;;;;1.25;1.25;;;;;14.43;57.11;101571.22;4924334;28;45426;-58
2021/10/01 04:38:02;;;;;;;;;1.75;1.75;;;;;14.41;56.96;101575.78;4907047;28;45350;-58
2021/10/01 04:40:28;;;;;;;;;1.50;1.50;;;;;14.40;56.84;101565.28;4924664;28;45367;-57
2021/10/01 04:42:53;;;;;;;;;1.25;1.25;;;;;14.38;57.20;101568.03;4924342;28;45307;-58
2021/10/01 04:45:19;;;;;;;;;2.25;1.00;;;;;14.39;57.52;101568.88;4924195;28;45301;-58
2021/10/01 04:47:44;;;;;;;;;3.75;2.25;;;;;14.40;57.31;101567.94;4923923;28;45455;-58
2021/10/01 04:50:10;;;;;;;;;3.50;1.00;;;;;14.40;57.20;101566.13;4924438;28;45320;-58
2021/10/01 04:52:35;;;;;;;;;0.75;0.75;;;;;14.40;57.43;101563.50;4924341;28;45492;-58
2021/10/01 04:55:01;;;;;;;;;2.50;1.75;;;;;14.41;57.18;101566.97;4924209;28;45375;-58
2021/10/01 04:57:26;;;;;;;;;3.00;2.00;;;;;14.40;57.41;101563.50;4923846;28;45239;-58
2021/10/01 04:59:52;;;;;;;;;2.00;2.00;;;;;14.40;57.41;101565.28;4924117;28;45352;-58
2021/10/01 05:02:17;;;;;;;;;1.00;1.00;;;;;14.39;57.45;101558.28;4923710;28;45177;-58
2021/10/01 05:04:42;;;;;;;;;14.50;7.75;;;;;14.37;57.27;101565.47;4923506;28;46264;-58
2021/10/01 05:07:08;;;;;;;;;2.00;2.00;;;;;14.36;57.61;101566.41;4923841;28;45277;-58
2021/10/01 05:09:34;;;;;;;;;4.00;3.00;;;;;14.34;57.66;101571.81;4924081;28;45248;-58
2021/10/01 05:11:59;;;;;;;;;4.00;2.00;;;;;14.33;57.77;101575.41;4923900;28;45520;-58
2021/10/01 05:14:24;;;;;;;;;4.75;2.75;;;;;14.33;57.59;101563.97;4922448;28;45992;-58
2021/10/01 05:16:50;;;;;;;;;2.25;1.50;;;;;14.32;57.58;101563.09;4923603;28;45246;-58
2021/10/01 05:19:15;;;;;;;;;1.00;1.00;;;;;14.32;57.71;101567.56;4924105;28;45251;-57
2021/10/01 05:21:41;;;;;;;;;1.50;1.50;;;;;14.30;57.61;101557.06;4923907;28;45816;-57
2021/10/01 05:24:07;;;;;;;;;2.25;2.25;;;;;14.30;57.79;101574.72;4923923;28;45375;-57
2021/10/01 05:26:32;;;;;;;;;12.00;7.25;;;;;14.28;57.50;101558.94;4920484;28;45475;-57
2021/10/01 05:28:58;;;;;;;;;1.00;1.00;;;;;14.25;57.74;101564.44;4916145;28;45467;-57
2021/10/01 05:31:24;;;;;;;;;3.00;2.00;;;;;14.25;57.77;101567.09;4917190;28;45690;-58
2021/10/01 05:33:49;;;;;;;;;3.25;2.50;;;;;14.23;57.74;101561.88;4918123;28;46053;-57
2021/10/01 05:36:18;;;;;;;;;20.75;18.25;;;;;14.23;57.71;101566.34;4918176;28;45376;-58
2021/10/01 05:38:43;;;;;;;;;4.00;3.75;;;;;14.20;57.80;101554.09;4917256;28;45366;-57
2021/10/01 05:41:09;;;;;;;;;1.75;1.00;;;;;14.19;57.86;101555.03;4915567;28;45439;-54
2021/10/01 05:43:34;;;;;;;;;2.25;1.00;;;;;14.19;57.90;101552.41;4915008;28;45738;-56
2021/10/01 05:46:00;;;;;;;;;5.25;3.00;;;;;14.18;58.03;101550.69;4914823;28;45169;-56
2021/10/01 05:48:28;;;;;;;;;2.00;1.00;;;;;14.17;57.99;101545.50;4897702;28;45333;-57
2021/10/01 05:50:55;;;;;;;;;5.00;1.00;;;;;14.16;57.93;101549.94;4915104;28;45557;-57
2021/10/01 05:56:08;;;;;;;;;1.00;1.00;;;;;14.12;58.00;101545.78;4902132;28;45366;-56
2021/10/01 05:58:42;;;;;;;;;3.75;2.00;;;;;14.09;58.33;101539.81;4914023;28;45360;-61
2021/10/01 06:01:09;;;;;;;;;5.00;1.00;;;;;14.11;58.39;101541.41;4914870;28;45579;-58
2021/10/01 06:03:34;;;;;;;;;2.00;1.25;;;;;14.12;58.32;101536.97;4914434;28;45483;-59
2021/10/01 06:06:00;;;;;;;;;2.25;1.50;;;;;14.13;58.23;101533.38;4914913;28;45335;-58
2021/10/01 06:08:25;;;;;;;;;7.25;2.00;;;;;14.14;58.16;101537.72;4915636;28;45234;-58
2021/10/01 06:10:51;;;;;;;;;0.00;0.00;;;;;14.17;58.19;101540.19;4915972;28;45729;-56
2021/10/01 06:13:17;;;;;;;;;3.00;1.50;;;;;14.17;58.26;101543.69;4915604;28;45761;-57
2021/10/01 06:15:43;;;;;;;;;2.75;2.00;;;;;14.21;58.46;101542.56;4917718;28;45340;-57
2021/10/01 06:18:09;;;;;;;;;5.00;2.00;;;;;14.24;58.25;101541.53;4917199;28;45517;-57
2021/10/01 06:20:34;;;;;;;;;3.25;3.25;;;;;14.25;58.34;101538.78;4922685;28;45336;-55
2021/10/01 06:23:00;;;;;;;;;4.00;3.00;;;;;14.27;58.11;101538.69;4919813;28;45461;-56
2021/10/01 06:25:26;;;;;;;;;3.00;2.50;;;;;14.29;58.11;101539.44;4917660;28;45423;-56
2021/10/01 06:27:51;;;;;;;;;4.50;2.00;;;;;14.33;58.10;101534.81;4917044;28;45643;-57
2021/10/01 06:30:18;;;;;;;;;2.50;2.00;;;;;14.36;58.02;101537.25;4918111;28;45270;-57
2021/10/01 06:32:44;;;;;;;;;3.00;1.75;;;;;14.37;58.33;101531.00;4917382;28;45973;-57
2021/10/01 06:35:09;;;;;;;;;2.50;2.50;;;;;14.40;58.24;101534.31;4920448;28;45245;-57
2021/10/01 06:37:35;;;;;;;;;4.25;1.25;;;;;14.44;58.16;101537.63;4920484;28;45339;-57
2021/10/01 06:40:01;;;;;;;;;2.00;2.00;;;;;14.49;58.68;101532.94;4917227;28;45227;-58
2021/10/01 06:42:27;;;;;;;;;2.00;2.00;;;;;14.53;57.84;101537.06;4917360;28;45445;-57
2021/10/01 06:44:54;;;;;;;;;12.00;11.50;;;;;14.59;57.74;101536.69;4918870;28;45260;-56
2021/10/01 06:47:35;;;;;;;;;5.25;3.00;;;;;14.64;57.87;101531.13;4916999;28;45515;-56
2021/10/01 08:19:28;;;;;;;;;3.00;2.00;;;;;16.16;56.25;101488.13;4915366;28;45778;-56
2021/10/01 08:21:57;;;;;;;;;2.75;0.00;;;;;16.18;55.96;101473.75;4917832;28;45434;-58
2021/10/01 08:24:23;;;;;;;;;3.75;1.00;;;;;16.23;56.03;101483.22;4915876;28;45301;-58
2021/10/01 08:26:50;;;;;;;;;1.75;1.50;;;;;16.31;56.22;101476.41;4919691;28;45388;-58
2021/10/01 08:29:16;;;;;;;;;2.50;2.50;;;;;16.44;56.08;101471.91;4917687;28;45404;-57
2021/10/01 08:31:42;;;;;;;;;2.25;1.00;;;;;16.55;55.49;101470.28;4916938;28;45515;-57
2021/10/01 08:34:08;;;;;;;;;5.50;2.25;;;;;16.66;55.71;101478.31;4916584;28;45387;-57
2021/10/01 08:36:34;;;;;;;;;2.50;1.00;;;;;16.76;55.56;101483.88;4918471;28;45679;-58
2021/10/01 08:39:00;;;;;;;;;1.25;1.00;;;;;16.82;55.30;101470.94;4917793;28;45494;-56
2021/10/01 08:41:26;;;;;;;;;3.00;2.75;;;;;16.83;55.47;101471.81;4918258;28;45545;-58
2021/10/01 08:43:52;;;;;;;;;4.00;3.75;;;;;16.86;55.24;101467.09;4915376;28;45287;-55
2021/10/01 08:46:18;;;;;;;;;3.25;2.00;;;;;16.89;54.98;101466.00;4917245;28;45239;-57
2021/10/01 08:48:46;;;;;;;;;1.75;1.00;;;;;16.90;54.89;101457.91;4914911;28;45337;-58
2021/10/01 08:51:12;;;;;;;;;4.00;2.00;;;;;16.92;54.86;101455.16;4899759;28;45381;-56
2021/10/01 08:53:38;;;;;;;;;2.75;2.00;;;;;16.96;55.11;101453.97;4915668;28;45325;-56
2021/10/01 08:56:05;;;;;;;;;2.50;2.50;;;;;16.96;55.20;101454.81;4916715;28;45332;-58
2021/10/01 08:58:31;;;;;;;;;2.50;2.00;;;;;16.98;55.11;101452.91;4914774;28;46084;-61
2021/10/01 09:00:57;;;;;;;;;2.00;2.00;;;;;17.01;55.24;101454.47;4918604;28;45259;-57
2021/10/01 09:03:23;;;;;;;;;2.00;2.00;;;;;17.09;55.49;101452.09;4917932;28;45170;-57
2021/10/01 09:05:49;;;;;;;;;4.50;2.00;;;;;17.18;55.11;101453.19;4918296;28;45540;-57
2021/10/01 09:08:19;;;;;;;;;4.25;2.00;;;;;17.17;54.99;101449.69;4917540;28;45432;-58
2021/10/01 09:10:58;;;;;;;;;4.25;2.50;;;;;17.20;54.88;101459.25;4918458;28;45471;-58
2021/10/01 09:13:23;;;;;;;;;5.00;3.00;;;;;17.19;55.07;101454.91;4915418;28;45270;-56
2021/10/01 09:16:05;;;;;;;;;2.00;1.75;;;;;17.19;54.87;101457.56;4915790;28;45405;-56
2021/10/01 09:18:34;;;;;;;;;6.00;5.00;;;;;17.19;55.15;101442.44;4916955;28;45370;-58
2021/10/01 09:21:17;;;;;;;;;1.25;1.00;;;;;17.23;54.92;101437.72;4914522;28;45409;-56
2021/10/01 09:24:13;;;;;;;;;1.25;1.00;;;;;17.24;55.13;101447.41;4915459;28;45438;-57
2021/10/01 09:26:53;;;;;;;;;5.25;2.50;;;;;17.29;55.02;101440.75;4915353;28;45282;-56
2021/10/01 09:29:35;;;;;;;;;2.50;2.50;;;;;17.36;55.20;101445.63;4914421;28;46197;-57
2021/10/01 09:32:08;;;;;;;;;4.50;2.25;;;;;17.37;54.97;101442.84;4914946;28;45344;-58
2021/10/01 09:34:37;;;;;;;;;2.25;1.50;;;;;17.35;55.15;101446.59;4917401;28;45232;-58
2021/10/01 09:37:04;;;;;;;;;2.00;2.00;;;;;17.33;55.14;101446.72;4917407;28;45342;-58
2021/10/01 09:39:33;;;;;;;;;4.25;1.25;;;;;17.37;55.22;101442.84;4906212;28;45617;-57
2021/10/01 09:42:08;;;;;;;;;2.25;2.00;;;;;17.43;55.17;101442.38;4906447;28;45289;-57
2021/10/01 09:44:34;;;;;;;;;8.00;4.50;;;;;17.49;55.20;101446.38;4921812;28;45507;-56
2021/10/01 09:47:05;;;;;;;;;2.00;2.00;;;;;17.54;55.02;101452.22;4914203;28;45480;-56
2021/10/01 09:49:33;;;;;;;;;4.75;4.00;;;;;17.53;55.02;101446.00;4915122;28;45486;-58
2021/10/01 09:52:00;;;;;;;;;2.00;1.00;;;;;17.53;54.88;101448.69;4914393;28;45558;-57
2021/10/01 09:54:28;;;;;;;;;3.75;2.00;;;;;17.54;55.28;101454.88;4916981;28;45450;-58
2021/10/01 09:57:00;;;;;;;;;2.00;2.00;;;;;17.56;55.48;101448.47;4914452;28;45256;-58
2021/10/01 09:59:25;;;;;;;;;4.00;2.50;;;;;17.60;55.94;101451.72;4914152;28;45448;-58
2021/10/01 10:02:06;;;;;;;;;3.00;2.00;;;;;17.63;55.77;101443.50;4914516;28;45471;-59
2021/10/01 10:04:37;;;;;;;;;6.75;3.00;;;;;17.66;55.43;101443.25;4916271;28;45217;-57
2021/10/01 10:07:10;;;;;;;;;3.25;2.00;;;;;17.71;55.61;101442.94;4918772;28;45507;-58
2021/10/01 10:09:44;;;;;;;;;3.00;3.00;;;;;17.78;55.45;101431.69;4915793;28;46312;-58
2021/10/01 10:12:14;;;;;;;;;4.00;3.00;;;;;17.85;55.52;101443.56;4918631;28;45376;-57
2021/10/01 10:14:45;;;;;;;;;3.00;3.00;;;;;17.91;55.36;101442.22;4916159;28;45510;-57
2021/10/01 10:17:13;;;;;;;;;3.50;1.75;;;;;17.97;55.41;101432.88;4915589;28;45357;-58
2021/10/01 10:19:38;;;;;;;;;2.50;2.00;;;;;18.00;55.56;101433.47;4914078;28;46306;-58
2021/10/01 10:22:04;;;;;;;;;1.50;1.00;;;;;18.05;56.07;101441.97;4917732;28;45369;-59
2021/10/01 10:24:29;;;;;;;;;1.75;1.00;;;;;18.06;55.47;101445.47;4898274;28;45308;-57
2021/10/01 10:26:57;;;;;;;;;3.00;1.25;;;;;18.07;55.73;101444.50;4918371;28;45394;-57
2021/10/01 10:29:24;;;;;;;;;3.75;1.50;;;;;18.04;55.65;101440.28;4916376;28;46109;-58
2021/10/01 10:31:51;;;;;;;;;1.00;0.50;;;;;18.05;56.05;101436.63;4916339;28;45298;-57
2021/10/01 10:34:25;;;;;;;;;2.25;1.00;;;;;18.04;56.00;101437.63;4914545;28;45508;-58
2021/10/01 10:37:09;;;;;;;;;1.00;1.00;;;;;18.03;55.96;101437.75;4915111;28;45352;-58
2021/10/01 10:39:47;;;;;;;;;4.50;1.50;;;;;18.02;56.00;101430.72;4914663;28;46503;-58
2021/10/01 10:42:16;;;;;;;;;1.75;1.75;;;;;18.00;55.88;101422.81;4913390;28;45294;-58
2021/10/01 10:44:50;;;;;;;;;17.25;12.50;;;;;17.99;56.05;101415.78;4916034;28;45416;-58
2021/10/01 10:47:41;;;;;;;;;2.50;1.00;;;;;17.96;56.26;101413.38;4913990;28;45327;-56
2021/10/01 10:50:22;;;;;;;;;3.00;2.00;;;;;17.97;56.33;101398.22;4914784;28;46070;-55
2021/10/01 10:53:12;;;;;;;;;1.00;1.00;;;;;17.94;56.27;101398.50;4917606;28;45186;-57
2021/10/01 10:55:55;;;;;;;;;3.25;2.50;;;;;17.97;56.29;101395.56;4917374;28;45345;-56
2021/10/01 10:58:24;;;;;;;;;1.00;1.00;;;;;18.00;56.38;101400.63;4913483;28;45385;-56
2021/10/01 11:01:05;;;;;;;;;1.75;1.00;;;;;18.05;56.62;101401.13;4915337;28;46382;-57
2021/10/01 11:03:34;;;;;;;;;3.50;2.00;;;;;18.09;56.32;101400.78;4918123;28;45249;-55
2021/10/01 11:06:09;;;;;;;;;2.75;1.00;;;;;18.17;56.61;101396.63;4920340;28;45329;-56
2021/10/01 11:08:37;;;;;;;;;4.25;2.25;;;;;18.26;56.32;101390.56;4919763;28;45439;-54
2021/10/01 11:11:03;;;;;;;;;3.00;1.00;;;;;18.36;56.39;101392.34;4919574;28;46472;-55
2021/10/01 11:13:31;;;;;;;;;1.50;1.00;;;;;18.47;56.21;101388.78;4918815;28;45274;-55
2021/10/01 11:16:09;;;;;;;;;2.00;1.25;;;;;18.59;55.96;101384.28;4919269;28;45329;-57
2021/10/01 11:18:46;;;;;;;;;2.00;2.00;;;;;18.68;56.14;101373.72;4917449;28;45647;-56
2021/10/01 11:21:32;;;;;;;;;2.50;2.00;;;;;18.78;55.67;101364.94;4916316;28;45447;-56
2021/10/01 11:24:06;;;;;;;;;2.75;1.25;;;;;18.85;55.73;101356.28;4918011;28;45479;-56
2021/10/01 11:26:45;;;;;;;;;4.00;1.00;;;;;18.93;55.56;101356.47;4916992;28;45554;-56
2021/10/01 11:29:24;;;;;;;;;2.00;2.00;;;;;19.00;55.28;101353.31;4916290;28;45262;-54
2021/10/01 11:31:53;;;;;;;;;3.75;2.00;;;;;19.04;54.99;101366.28;4918337;28;45383;-58
2021/10/01 11:34:18;;;;;;;;;2.00;1.00;;;;;19.08;55.37;101369.50;4916574;28;45414;-55
2021/10/01 11:36:44;;;;;;;;;1.50;0.00;;;;;19.08;55.58;101367.69;4920642;28;45408;-58
2021/10/01 11:39:13;;;;;;;;;2.00;2.00;;;;;19.04;55.29;101362.72;4917561;28;45630;-57
2021/10/01 11:41:45;;;;;;;;;2.00;0.50;;;;;18.95;55.55;101354.53;4920094;28;45324;-56
2021/10/01 11:44:13;;;;;;;;;1.00;1.00;;;;;18.93;55.49;101352.97;4916602;28;45230;-57
2021/10/01 11:46:40;;;;;;;;;2.00;1.00;;;;;19.02;56.06;101354.84;4916412;28;45334;-56
2021/10/01 11:49:27;;;;;;;;;4.00;2.00;;;;;19.16;55.63;101353.69;4916603;28;46428;-56
2021/10/01 11:52:13;;;;;;;;;1.00;1.00;;;;;19.20;55.58;101347.13;4915921;28;46402;-55
2021/10/01 11:54:49;;;;;;;;;2.00;2.00;;;;;19.16;55.39;101343.00;4916014;28;45515;-56
2021/10/01 11:57:15;;;;;;;;;1.75;1.00;;;;;19.22;55.48;101335.31;4919615;28;45300;-56
2021/10/01 11:59:53;;;;;;;;;4.75;3.50;;;;;19.25;55.42;101342.22;4916435;28;45338;-55
2021/10/01 12:02:46;;;;;;;;;3.00;2.00;;;;;19.26;55.64;101325.19;4917007;28;46346;-55
2021/10/01 12:05:32;;;;;;;;;1.00;1.00;;;;;19.30;55.28;101328.47;4915073;28;45341;-56
2021/10/01 12:08:11;;;;;;;;;1.25;1.00;;;;;19.32;55.22;101324.66;4917282;28;45387;-56
2021/10/01 12:10:48;;;;;;;;;3.00;2.00;;;;;19.34;55.56;101314.69;4918892;28;45261;-57
2021/10/01 12:13:16;;;;;;;;;6.00;1.50;;;;;19.33;55.55;101318.34;4919610;28;45521;-56
2021/10/01 12:15:44;;;;;;;;;6.75;4.00;;;;;19.31;55.67;101314.13;4919751;28;45386;-57
2021/10/01 12:18:42;;;;;;;;;1.00;1.00;;;;;19.26;55.67;101311.84;4916179;28;45433;-57
2021/10/01 12:21:17;;;;;;;;;6.00;2.00;;;;;19.18;55.32;101303.66;4915682;28;45442;-57
2021/10/01 12:23:48;;;;;;;;;1.50;0.50;;;;;19.14;55.53;101312.91;4915397;28;46293;-56
2021/10/01 12:26:31;;;;;;;;;2.00;1.00;;;;;19.06;55.98;101313.56;4917776;28;45332;-56
2021/10/01 12:29:19;;;;;;;;;2.75;1.00;;;;;18.98;55.87;101305.38;4918009;28;45463;-57
2021/10/01 12:31:48;;;;;;;;;7.25;2.00;;;;;18.93;56.61;101318.25;4915456;28;45515;-55
2021/10/01 12:34:23;;;;;;;;;0.00;0.00;;;;;18.90;56.74;101313.19;4916245;28;46148;-55
2021/10/01 12:36:52;;;;;;;;;1.00;0.50;;;;;18.86;56.88;101307.25;4919397;28;45579;-55
2021/10/01 12:39:18;;;;;;;;;6.00;2.75;;;;;18.85;56.49;101294.88;4918319;28;45324;-56
2021/10/01 12:41:43;;;;;;;;;2.00;1.00;;;;;18.87;56.63;101290.25;4921397;28;45310;-55
2021/10/01 12:44:14;;;;;;;;;0.25;0.25;;;;;18.90;57.05;101284.69;4915609;28;45604;-55
2021/10/01 12:46:48;;;;;;;;;1.00;0.50;;;;;18.92;56.57;101296.06;4898489;28;45465;-56
2021/10/01 12:49:23;;;;;;;;;1.25;1.00;;;;;18.92;56.67;101284.53;4915902;28;45351;-54
2021/10/01 12:52:14;;;;;;;;;2.00;0.00;;;;;18.94;57.27;101293.25;4915545;28;45456;-56
2021/10/01 12:54:47;;;;;;;;;3.75;2.00;;;;;18.93;57.04;101287.06;4913529;28;45534;-56
2021/10/01 12:57:28;;;;;;;;;2.00;1.75;;;;;18.93;57.09;101278.22;4915738;28;45299;-56
2021/10/01 13:00:06;;;;;;;;;4.00;2.00;;;;;18.95;57.11;101270.91;4915006;28;45373;-56
2021/10/01 13:02:46;;;;;;;;;2.50;1.00;;;;;18.94;56.90;101270.06;4916090;28;45325;-57
2021/10/01 13:05:21;;;;;;;;;3.00;1.25;;;;;18.95;57.21;101265.56;4916803;28;46716;-57
2021/10/01 13:08:14;;;;;;;;;1.00;1.00;;;;;18.98;57.37;101259.16;4920279;28;45361;-56
2021/10/01 13:10:50;;;;;;;;;1.25;0.00;;;;;18.97;57.38;101266.31;4912651;28;45360;-57